Time;durP1;ratioP1;P1;durP2;ratioP2;P2;SDS_P1;SDS_P2;PMS_P1;PMS_P2;Temp;Humidity;BMP_temperature;BMP_pressure;BME280_temperature;BME280_humidity;BME280_pressure;Samples;Min_cycle;Max_cycle;Signal;HPM_P1;HPM_P2
2022/05/27 00:01:52;;;;;;;;;;;;;;;15.93;77.92;100013.44;5013490;28;1940;-59
2022/05/27 00:04:19;;;;;;;;;;;;;;;15.89;77.85;100016.31;5013493;28;913;-59
2022/05/27 00:06:46;;;;;;;;;;;;;;;15.81;77.94;100014.13;5013369;28;855;-59
2022/05/27 00:09:12;;;;;;;;;;;;;;;15.62;78.17;100010.94;5013381;28;845;-59
2022/05/27 00:11:39;;;;;;;;;;;;;;;15.44;78.66;100016.09;5013380;28;827;-59
2022/05/27 00:14:06;;;;;;;;;;;;;;;15.44;78.57;100014.09;5013167;28;842;-59
2022/05/27 00:16:32;;;;;;;;;;;;;;;15.63;77.71;100008.94;5013283;28;812;-59
2022/05/27 00:18:59;;;;;;;;;;;;;;;15.73;77.01;100009.94;5013352;28;871;-59
2022/05/27 00:21:26;;;;;;;;;;;;;;;15.68;76.83;100011.19;5013155;28;1882;-59
2022/05/27 00:23:53;;;;;;;;;;;;;;;15.90;75.72;100014.31;5013077;28;807;-59
2022/05/27 00:26:20;;;;;;;;;;;;;;;15.87;75.55;100001.25;5013170;28;815;-59
2022/05/27 00:28:46;;;;;;;;;;;;;;;15.70;75.76;100003.19;5012911;28;955;-59
2022/05/27 00:31:13;;;;;;;;;;;;;;;15.58;75.93;100001.88;5012654;28;1318;-59
2022/05/27 00:33:39;;;;;;;;;;;;;;;15.46;76.18;99999.75;5013141;28;787;-59
2022/05/27 00:36:08;;;;;;;;;;;;;;;15.32;76.51;100001.63;5012922;28;945;-59
2022/05/27 00:38:35;;;;;;;;;;;;;;;15.28;76.91;100000.13;5012909;28;846;-60
2022/05/27 00:41:02;;;;;;;;;;;;;;;15.31;77.34;99999.28;5012727;28;1910;-59
2022/05/27 00:43:29;;;;;;;;;;;;;;;15.34;77.42;100001.22;5012718;28;870;-59
2022/05/27 00:46:07;;;;;;;;;;;;;;;15.31;77.59;99994.47;5012701;28;870;-59
2022/05/27 00:48:36;;;;;;;;;;;;;;;15.25;77.94;99990.63;5011991;28;854;-59
2022/05/27 00:51:07;;;;;;;;;;;;;;;15.14;78.13;99998.41;5012709;28;881;-59
2022/05/27 00:53:39;;;;;;;;;;;;;;;14.99;78.51;99986.78;5012643;28;815;-59
2022/05/27 00:56:07;;;;;;;;;;;;;;;14.99;78.57;99999.94;5012537;28;819;-59
2022/05/27 00:58:37;;;;;;;;;;;;;;;14.95;78.18;99993.66;5012518;28;835;-59
2022/05/27 01:01:04;;;;;;;;;;;;;;;14.88;78.55;99989.78;4994874;28;1941;-59
2022/05/27 01:03:32;;;;;;;;;;;;;;;14.88;78.43;99991.78;5012434;28;851;-59
2022/05/27 01:05:58;;;;;;;;;;;;;;;14.77;78.56;99989.22;5012435;28;811;-61
2022/05/27 01:08:28;;;;;;;;;;;;;;;14.74;78.85;99998.41;5012378;28;822;-61
2022/05/27 01:11:12;;;;;;;;;;;;;;;14.68;78.77;99997.34;5012267;28;854;-60
2022/05/27 01:13:39;;;;;;;;;;;;;;;14.68;79.03;99991.78;5012163;28;858;-61
2022/05/27 01:16:06;;;;;;;;;;;;;;;14.88;79.00;99997.34;4994638;28;1186;-62
2022/05/27 01:21:49;;;;;;;;;;;;;;;15.31;77.65;99996.47;5012240;28;1886;-62
2022/05/27 01:24:32;;;;;;;;;;;;;;;15.29;77.60;99988.56;5012405;28;835;-61
2022/05/27 01:27:07;;;;;;;;;;;;;;;15.34;77.54;99989.25;5012340;28;1034;-60
2022/05/27 01:29:48;;;;;;;;;;;;;;;15.27;77.59;99990.97;5012147;28;894;-61
2022/05/27 01:32:22;;;;;;;;;;;;;;;15.23;77.58;99997.84;5011893;28;1285;-60
2022/05/27 01:34:53;;;;;;;;;;;;;;;15.13;77.58;99994.09;5012033;28;889;-60
2022/05/27 01:37:45;;;;;;;;;;;;;;;15.09;77.64;99990.59;5012128;28;855;-61
2022/05/27 01:40:47;;;;;;;;;;;;;;;15.40;75.82;99979.19;5011966;28;811;-60
2022/05/27 01:43:19;;;;;;;;;;;;;;;15.54;74.82;99976.09;4913346;29;1246;-60
2022/05/27 01:45:58;;;;;;;;;;;;;;;15.54;74.48;99972.53;4913393;29;1012;-60
2022/05/27 01:48:34;;;;;;;;;;;;;;;15.31;75.01;99983.34;4913511;29;784;-60
2022/05/27 01:51:04;;;;;;;;;;;;;;;15.14;75.22;99984.50;4913335;29;948;-60
2022/05/27 01:53:31;;;;;;;;;;;;;;;15.11;75.01;99980.59;4913388;29;816;-60
2022/05/27 01:56:17;;;;;;;;;;;;;;;15.11;75.03;99968.66;4913343;29;918;-60
2022/05/27 01:59:11;;;;;;;;;;;;;;;15.15;74.80;99969.38;4913335;29;1158;-60
2022/05/27 02:01:46;;;;;;;;;;;;;;;15.41;73.46;99969.63;4915470;29;1886;-61
2022/05/27 02:04:22;;;;;;;;;;;;;;;15.80;72.04;99974.31;4917174;29;1036;-60
2022/05/27 02:06:55;;;;;;;;;;;;;;;16.09;70.76;99980.00;4917159;29;828;-60
2022/05/27 02:09:37;;;;;;;;;;;;;;;16.07;70.75;99976.88;4917008;29;804;-61
2022/05/27 02:12:05;;;;;;;;;;;;;;;16.03;70.42;99970.59;4917003;29;816;-61
2022/05/27 02:14:52;;;;;;;;;;;;;;;16.39;68.91;99969.69;4916995;29;860;-60
2022/05/27 02:17:20;;;;;;;;;;;;;;;16.70;67.67;99972.84;4972378;28;2098;-60
2022/05/27 02:19:52;;;;;;;;;;;;;;;16.76;67.06;99963.94;5015405;28;883;-60
2022/05/27 02:22:22;;;;;;;;;;;;;;;16.59;67.58;99969.56;5015368;28;1889;-60
2022/05/27 02:24:52;;;;;;;;;;;;;;;16.43;67.91;99961.22;5015379;28;893;-60
2022/05/27 02:27:22;;;;;;;;;;;;;;;16.26;68.29;99963.28;4997646;28;1296;-60
2022/05/27 02:29:51;;;;;;;;;;;;;;;16.02;68.90;99957.84;5014032;28;1173;-60
2022/05/27 02:32:29;;;;;;;;;;;;;;;15.70;69.94;99953.03;4976135;28;878;-60
2022/05/27 02:35:08;;;;;;;;;;;;;;;15.48;70.44;99959.09;4976297;28;818;-60
2022/05/27 02:37:52;;;;;;;;;;;;;;;15.52;70.20;99951.44;4976217;28;849;-60
2022/05/27 02:40:21;;;;;;;;;;;;;;;15.48;70.16;99953.53;4976024;28;965;-60
2022/05/27 02:43:00;;;;;;;;;;;;;;;15.60;69.73;99946.50;4975906;28;1914;-60
2022/05/27 02:45:36;;;;;;;;;;;;;;;15.95;68.18;99951.69;4975959;28;815;-60
2022/05/27 02:48:20;;;;;;;;;;;;;;;16.31;66.77;99960.72;4975992;28;787;-60
2022/05/27 02:50:54;;;;;;;;;;;;;;;16.34;66.64;99961.84;4975932;28;811;-60
2022/05/27 02:53:45;;;;;;;;;;;;;;;16.57;63.47;99958.06;4975890;28;898;-62
2022/05/27 02:56:20;;;;;;;;;;;;;;;17.26;61.61;99954.94;4975801;28;823;-60
2022/05/27 02:58:48;;;;;;;;;;;;;;;17.79;59.04;99960.09;4975993;28;819;-60
2022/05/27 03:01:14;;;;;;;;;;;;;;;18.10;58.24;99960.31;4975799;28;1946;-61
2022/05/27 03:03:42;;;;;;;;;;;;;;;18.06;57.93;99959.63;4975875;28;878;-60
2022/05/27 03:06:26;;;;;;;;;;;;;;;18.00;58.27;99963.47;4975815;28;823;-59
2022/05/27 03:08:53;;;;;;;;;;;;;;;18.09;57.28;99953.16;4975565;28;886;-60
2022/05/27 03:11:31;;;;;;;;;;;;;;;17.87;58.83;99972.63;4974314;28;855;-60
2022/05/27 03:14:18;;;;;;;;;;;;;;;17.54;60.15;99970.06;4975492;28;796;-60
2022/05/27 03:16:50;;;;;;;;;;;;;;;17.59;59.38;99971.50;4975451;28;866;-60
2022/05/27 03:19:21;;;;;;;;;;;;;;;17.35;61.29;99985.78;4975385;28;896;-60
2022/05/27 03:21:53;;;;;;;;;;;;;;;16.80;64.20;99992.53;4990184;28;1946;-59
2022/05/27 03:24:22;;;;;;;;;;;;;;;16.33;66.50;100000.13;4975609;28;890;-61
2022/05/27 03:27:04;;;;;;;;;;;;;;;15.99;69.05;100008.91;4975185;28;1056;-60
2022/05/27 03:29:31;;;;;;;;;;;;;;;15.82;69.89;100013.69;4975184;28;870;-60
2022/05/27 03:32:06;;;;;;;;;;;;;;;15.77;70.67;100019.78;5008865;28;1485;-60
2022/05/27 03:34:55;;;;;;;;;;;;;;;15.81;71.14;100028.84;5014078;28;922;-60
2022/05/27 03:37:34;;;;;;;;;;;;;;;15.92;70.75;100036.97;5014022;28;902;-60
2022/05/27 03:40:06;;;;;;;;;;;;;;;15.97;70.92;100033.66;5013976;28;916;-60
2022/05/27 03:42:34;;;;;;;;;;;;;;;16.04;71.12;100036.25;5014213;28;1914;-60
2022/05/27 03:45:15;;;;;;;;;;;;;;;16.17;70.87;100043.94;5013955;28;827;-60
2022/05/27 03:47:42;;;;;;;;;;;;;;;16.28;70.97;100044.47;5013812;28;819;-60
2022/05/27 03:50:10;;;;;;;;;;;;;;;16.38;71.38;100049.00;5013814;28;823;-60
2022/05/27 03:52:40;;;;;;;;;;;;;;;16.49;72.01;100043.16;5013723;28;906;-60
2022/05/27 03:55:08;;;;;;;;;;;;;;;16.63;73.01;100050.41;5014326;28;791;-60
2022/05/27 03:57:35;;;;;;;;;;;;;;;16.79;73.68;100047.59;5013875;28;811;-60
2022/05/27 04:00:03;;;;;;;;;;;;;;;16.99;73.86;100046.69;5013941;28;811;-60
2022/05/27 04:02:29;;;;;;;;;;;;;;;17.21;74.72;100056.03;5013572;28;1890;-60
2022/05/27 04:04:56;;;;;;;;;;;;;;;17.45;75.71;100053.72;5013845;28;831;-60
2022/05/27 04:07:22;;;;;;;;;;;;;;;17.66;76.67;100057.91;5013583;28;882;-60
2022/05/27 04:09:49;;;;;;;;;;;;;;;17.86;77.22;100066.16;5014001;28;752;-60
2022/05/27 04:12:15;;;;;;;;;;;;;;;18.02;79.13;100072.84;5013957;28;898;-60
2022/05/27 04:14:41;;;;;;;;;;;;;;;18.19;80.13;100070.72;5013562;28;847;-60
2022/05/27 04:19:52;;;;;;;;;;;;;;;18.40;82.83;100070.03;5013240;28;685;-59
2022/05/27 04:22:19;;;;;;;;;;;;;;;18.47;83.61;100080.22;5012944;28;1957;-60
2022/05/27 04:24:46;;;;;;;;;;;;;;;18.57;83.94;100082.66;5013154;28;823;-59
2022/05/27 04:27:14;;;;;;;;;;;;;;;18.70;84.30;100085.41;5013099;28;1032;-60
2022/05/27 04:29:42;;;;;;;;;;;;;;;18.76;84.70;100089.22;4995404;28;2433;-60
2022/05/27 04:32:09;;;;;;;;;;;;;;;18.89;84.73;100091.22;5012875;28;1453;-60
2022/05/27 04:34:36;;;;;;;;;;;;;;;18.98;84.97;100092.09;5012927;28;861;-60
2022/05/27 04:37:03;;;;;;;;;;;;;;;19.04;84.99;100097.13;5012964;28;870;-59
2022/05/27 04:39:30;;;;;;;;;;;;;;;18.95;85.52;100092.22;5012758;28;807;-60
2022/05/27 04:41:56;;;;;;;;;;;;;;;19.04;85.70;100094.31;5012777;28;1906;-61
2022/05/27 04:44:23;;;;;;;;;;;;;;;19.24;85.81;100094.78;5012775;28;929;-60
2022/05/27 04:46:49;;;;;;;;;;;;;;;19.49;85.42;100091.06;5012695;28;800;-60
2022/05/27 04:52:01;;;;;;;;;;;;;;;19.54;84.33;100093.31;5012662;28;697;-60
2022/05/27 04:54:28;;;;;;;;;;;;;;;19.42;85.10;100090.56;4995023;28;1646;-60
2022/05/27 04:56:55;;;;;;;;;;;;;;;19.57;85.30;100091.59;5012612;28;835;-60
2022/05/27 04:59:21;;;;;;;;;;;;;;;19.66;85.21;100093.69;5012465;28;811;-60
2022/05/27 05:01:48;;;;;;;;;;;;;;;19.91;85.30;100095.56;5012431;28;1955;-60
2022/05/27 05:04:15;;;;;;;;;;;;;;;20.21;84.77;100090.41;5012441;28;834;-60
2022/05/27 05:06:42;;;;;;;;;;;;;;;20.58;83.48;100094.88;5012387;28;898;-60
2022/05/27 05:09:09;;;;;;;;;;;;;;;20.93;81.30;100091.03;5012309;28;822;-59
2022/05/27 05:11:36;;;;;;;;;;;;;;;21.07;80.40;100096.03;5012333;28;879;-60
2022/05/27 05:14:03;;;;;;;;;;;;;;;21.15;79.03;100097.28;5012415;28;846;-59
2022/05/27 05:16:30;;;;;;;;;;;;;;;21.25;79.12;100095.25;5012282;28;882;-60
2022/05/27 05:18:56;;;;;;;;;;;;;;;21.59;78.66;100105.41;5012177;28;842;-59
2022/05/27 05:21:23;;;;;;;;;;;;;;;22.08;76.63;100102.75;5012130;28;1983;-60
2022/05/27 05:23:50;;;;;;;;;;;;;;;22.41;75.05;100108.44;5012151;28;865;-60
2022/05/27 05:26:16;;;;;;;;;;;;;;;22.66;74.23;100109.22;5012107;28;831;-60
2022/05/27 05:28:43;;;;;;;;;;;;;;;23.01;72.84;100098.97;5012439;28;1004;-60
2022/05/27 05:31:13;;;;;;;;;;;;;;;23.22;72.12;100101.97;5011736;28;1223;-60
2022/05/27 05:33:39;;;;;;;;;;;;;;;23.26;71.52;100108.19;5011344;28;898;-59
2022/05/27 05:36:06;;;;;;;;;;;;;;;23.46;69.55;100101.13;5011980;28;990;-59
2022/05/27 05:38:33;;;;;;;;;;;;;;;23.66;68.02;100104.03;5011838;28;882;-59
2022/05/27 05:40:59;;;;;;;;;;;;;;;23.97;65.83;100099.97;5011874;28;1910;-60
2022/05/27 05:43:26;;;;;;;;;;;;;;;24.50;64.54;100110.31;5012097;28;862;-61
2022/05/27 05:45:52;;;;;;;;;;;;;;;25.32;62.28;100107.47;5011883;28;799;-59
2022/05/27 05:48:19;;;;;;;;;;;;;;;26.43;59.61;100105.34;5011791;28;804;-59
2022/05/27 05:50:45;;;;;;;;;;;;;;;27.63;56.49;100100.44;5011863;28;862;-59
2022/05/27 05:53:12;;;;;;;;;;;;;;;28.47;53.32;100101.69;5011752;28;874;-59
2022/05/27 05:55:38;;;;;;;;;;;;;;;29.13;51.62;100107.72;5011604;28;843;-59
2022/05/27 05:58:05;;;;;;;;;;;;;;;29.44;50.05;100103.63;5011755;28;827;-59
2022/05/27 06:00:32;;;;;;;;;;;;;;;29.33;49.03;100095.19;5011998;28;839;-61
2022/05/27 06:02:59;;;;;;;;;;;;;;;29.50;48.98;100095.06;5011650;28;1890;-59
2022/05/27 06:05:25;;;;;;;;;;;;;;;30.15;46.65;100101.28;5011628;28;891;-60
2022/05/27 06:07:52;;;;;;;;;;;;;;;30.42;45.37;100093.81;4993906;28;1418;-59
2022/05/27 06:10:19;;;;;;;;;;;;;;;30.48;45.47;100097.38;5011596;28;920;-59
2022/05/27 06:12:46;;;;;;;;;;;;;;;30.78;44.24;100083.00;5011665;28;839;-59
2022/05/27 06:15:13;;;;;;;;;;;;;;;31.09;43.67;100086.56;5011552;28;855;-59
2022/05/27 06:17:40;;;;;;;;;;;;;;;31.21;43.51;100085.06;5011591;28;886;-58
2022/05/27 06:20:08;;;;;;;;;;;;;;;31.34;43.20;100082.28;5011448;28;943;-59
2022/05/27 06:22:34;;;;;;;;;;;;;;;31.87;42.42;100084.59;5011471;28;1953;-59
2022/05/27 06:25:01;;;;;;;;;;;;;;;32.03;40.14;100085.66;5011399;28;1096;-58
2022/05/27 06:27:28;;;;;;;;;;;;;;;31.85;39.89;100084.34;5011516;28;973;-59
2022/05/27 06:34:23;;;;;;;;;;;;;;;31.36;40.97;100087.44;5011457;28;653;-59
2022/05/27 06:35:38;;;;;;;;;;;;;;;31.58;39.90;100085.59;5011260;28;801;-59
2022/05/27 06:38:05;;;;;;;;;;;;;;;31.67;39.20;100079.47;5011225;28;840;-59
2022/05/27 06:40:32;;;;;;;;;;;;;;;32.12;38.47;100078.75;5011333;28;835;-59
2022/05/27 06:42:58;;;;;;;;;;;;;;;32.48;38.11;100075.47;5011301;28;1969;-59
2022/05/27 06:45:25;;;;;;;;;;;;;;;33.04;37.43;100074.31;5012498;28;819;-59
2022/05/27 06:47:52;;;;;;;;;;;;;;;33.01;37.41;100068.91;5014982;28;882;-59
2022/05/27 06:50:18;;;;;;;;;;;;;;;33.34;36.72;100073.91;5014944;28;815;-58
2022/05/27 06:52:45;;;;;;;;;;;;;;;33.39;36.64;100069.38;5014852;28;1043;-60
2022/05/27 06:55:13;;;;;;;;;;;;;;;33.20;37.05;100077.38;5014842;28;827;-60
2022/05/27 06:57:39;;;;;;;;;;;;;;;33.21;36.76;100076.06;5014744;28;843;-59
2022/05/27 07:00:09;;;;;;;;;;;;;;;33.42;36.42;100074.00;5014758;28;890;-58
2022/05/27 07:02:36;;;;;;;;;;;;;;;33.83;35.92;100071.75;5014669;28;1890;-58
2022/05/27 07:05:03;;;;;;;;;;;;;;;33.89;35.45;100083.84;4997336;28;831;-58
2022/05/27 07:07:31;;;;;;;;;;;;;;;33.82;35.24;100076.72;5014515;28;810;-60
2022/05/27 07:09:58;;;;;;;;;;;;;;;33.55;34.84;100076.81;5014462;28;891;-59
2022/05/27 07:12:26;;;;;;;;;;;;;;;33.40;35.50;100076.66;5014586;28;843;-59
2022/05/27 07:14:52;;;;;;;;;;;;;;;33.92;34.26;100077.72;5014475;28;862;-59
2022/05/27 07:17:19;;;;;;;;;;;;;;;34.24;33.77;100073.03;5014549;28;827;-59
2022/05/27 07:19:46;;;;;;;;;;;;;;;33.95;34.10;100076.63;5014379;28;902;-58
2022/05/27 07:22:12;;;;;;;;;;;;;;;33.90;34.16;100071.03;5014220;28;1975;-59
2022/05/27 07:24:39;;;;;;;;;;;;;;;34.25;33.65;100069.63;5014176;28;934;-59
2022/05/27 07:27:06;;;;;;;;;;;;;;;34.22;34.21;100065.00;5014325;28;943;-58
2022/05/27 07:29:34;;;;;;;;;;;;;;;34.58;32.91;100067.88;5014095;28;911;-59
2022/05/27 07:32:01;;;;;;;;;;;;;;;34.24;33.48;100070.94;5013965;28;1425;-60
2022/05/27 07:34:27;;;;;;;;;;;;;;;33.81;33.90;100063.69;5014099;28;874;-59
2022/05/27 07:36:54;;;;;;;;;;;;;;;33.61;33.27;100073.84;5014198;28;866;-61
2022/05/27 07:39:21;;;;;;;;;;;;;;;33.48;33.47;100071.78;5013970;28;815;-59
2022/05/27 07:41:48;;;;;;;;;;;;;;;34.14;33.60;100067.03;5013961;28;1973;-60
2022/05/27 07:44:16;;;;;;;;;;;;;;;34.29;32.87;100074.97;5013836;28;906;-59
2022/05/27 07:46:43;;;;;;;;;;;;;;;34.62;32.20;100069.63;5013752;28;926;-59
2022/05/27 07:49:09;;;;;;;;;;;;;;;35.17;31.85;100066.47;5013831;28;799;-60
2022/05/27 07:51:36;;;;;;;;;;;;;;;34.79;30.88;100061.31;5013745;28;827;-59
2022/05/27 07:54:04;;;;;;;;;;;;;;;34.64;31.86;100067.00;5013723;28;851;-60
2022/05/27 07:56:30;;;;;;;;;;;;;;;34.45;31.22;100061.50;5013317;28;922;-59
2022/05/27 07:58:57;;;;;;;;;;;;;;;34.38;31.47;100063.00;5013419;28;842;-58
2022/05/27 08:01:24;;;;;;;;;;;;;;;34.14;31.91;100062.09;5013480;28;2004;-60
2022/05/27 08:03:50;;;;;;;;;;;;;;;34.75;30.46;100058.06;5013563;28;800;-59
2022/05/27 08:06:17;;;;;;;;;;;;;;;34.93;30.44;100059.84;5013300;28;910;-61
2022/05/27 08:08:46;;;;;;;;;;;;;;;34.95;30.31;100054.31;5013501;28;795;-59
2022/05/27 08:11:14;;;;;;;;;;;;;;;34.77;31.22;100044.66;5013319;28;915;-58
2022/05/27 08:13:42;;;;;;;;;;;;;;;35.23;31.25;100046.97;5013585;28;816;-59
2022/05/27 08:16:09;;;;;;;;;;;;;;;35.39;30.84;100053.50;5013194;28;919;-58
2022/05/27 08:18:37;;;;;;;;;;;;;;;35.23;30.65;100046.16;5013342;28;866;-62
2022/05/27 08:21:03;;;;;;;;;;;;;;;34.29;37.26;100049.94;5013064;28;1886;-60
2022/05/27 08:23:30;;;;;;;;;;;;;;;33.45;34.96;100047.09;5013174;28;863;-60
2022/05/27 08:25:56;;;;;;;;;;;;;;;33.45;34.38;100037.75;5012784;28;886;-60
2022/05/27 08:28:24;;;;;;;;;;;;;;;33.91;33.14;100038.19;5013346;28;984;-60
2022/05/27 08:30:55;;;;;;;;;;;;;;;33.99;32.58;100036.13;5012778;28;1099;-58
2022/05/27 08:33:23;;;;;;;;;;;;;;;34.12;32.50;100024.59;5013207;28;1192;-61
2022/05/27 08:38:36;;;;;;;;;;;;;;;33.91;32.67;100023.84;5013207;28;673;-60
2022/05/27 08:41:03;;;;;;;;;;;;;;;33.86;33.77;100021.88;4995218;28;1903;-59
2022/05/27 08:43:48;;;;;;;;;;;;;;;33.81;32.92;100022.81;5012718;28;859;-60
2022/05/27 08:46:23;;;;;;;;;;;;;;;33.35;34.60;100020.25;5012723;28;926;-59
2022/05/27 08:48:53;;;;;;;;;;;;;;;33.53;34.26;100021.41;5012785;28;803;-60
2022/05/27 08:51:22;;;;;;;;;;;;;;;33.70;33.29;100018.13;5012765;28;807;-61
2022/05/27 08:54:02;;;;;;;;;;;;;;;33.41;33.94;100011.53;5012703;28;865;-59
2022/05/27 08:59:31;;;;;;;;;;;;;;;33.18;33.21;100025.63;5013142;28;676;-59
2022/05/27 09:02:03;;;;;;;;;;;;;;;33.18;33.52;100014.97;5012491;28;1890;-60
2022/05/27 09:04:33;;;;;;;;;;;;;;;33.19;33.75;100021.44;5012493;28;815;-59
2022/05/27 09:07:19;;;;;;;;;;;;;;;33.22;34.04;100009.63;5012689;28;935;-59
2022/05/27 09:09:46;;;;;;;;;;;;;;;33.29;34.77;100014.69;4962320;28;1087;-59
2022/05/27 09:12:31;;;;;;;;;;;;;;;33.80;34.91;100007.72;4995183;28;839;-59
2022/05/27 09:15:01;;;;;;;;;;;;;;;33.87;32.51;100011.97;5012250;28;846;-59
2022/05/27 09:17:50;;;;;;;;;;;;;;;33.85;33.73;100006.03;5012985;28;756;-60
2022/05/27 09:20:37;;;;;;;;;;;;;;;33.80;33.26;100010.59;5012047;28;2164;-59
2022/05/27 09:23:18;;;;;;;;;;;;;;;33.21;33.86;99993.78;5012143;28;1874;-59
2022/05/27 09:25:49;;;;;;;;;;;;;;;32.72;33.71;99992.25;5012137;28;871;-59
2022/05/27 09:28:32;;;;;;;;;;;;;;;32.33;36.27;99998.81;5012388;28;984;-61
2022/05/27 09:31:00;;;;;;;;;;;;;;;32.17;35.80;99983.50;5011864;28;1256;-59
2022/05/27 09:33:30;;;;;;;;;;;;;;;32.14;35.74;99982.53;5012057;28;865;-59
2022/05/27 09:36:15;;;;;;;;;;;;;;;31.91;36.24;99987.88;5011822;28;1128;-60
2022/05/27 09:38:54;;;;;;;;;;;;;;;31.61;36.60;99988.16;5011856;28;867;-60
2022/05/27 09:41:25;;;;;;;;;;;;;;;31.63;35.20;99987.63;5011770;28;1918;-60
2022/05/27 09:43:51;;;;;;;;;;;;;;;31.56;36.12;99982.53;4994192;28;2564;-60
2022/05/27 09:46:23;;;;;;;;;;;;;;;31.17;38.03;99978.22;5011949;28;910;-59
2022/05/27 09:48:50;;;;;;;;;;;;;;;30.93;36.76;99980.63;5011832;28;823;-60
2022/05/27 09:51:18;;;;;;;;;;;;;;;30.66;37.25;99978.91;5011862;28;815;-59
2022/05/27 09:53:48;;;;;;;;;;;;;;;30.73;38.81;99970.53;5011922;28;808;-59
2022/05/27 09:56:15;;;;;;;;;;;;;;;30.50;38.55;99967.19;5011743;28;865;-60
2022/05/27 09:58:44;;;;;;;;;;;;;;;30.19;38.24;99965.72;5012048;28;882;-59
2022/05/27 10:29:30;;;;;;;;;;;;;;;31.47;36.72;99935.16;5026442;28;1337;-60
2022/05/27 10:31:59;;;;;;;;;;;;;;;31.51;36.81;99942.09;5035389;28;857;-59
2022/05/27 10:34:45;;;;;;;;;;;;;;;32.01;36.37;99938.91;5034958;28;886;-59
2022/05/27 10:37:22;;;;;;;;;;;;;;;31.77;36.35;99928.41;5035106;28;905;-59
2022/05/27 10:40:07;;;;;;;;;;;;;;;31.84;36.25;99933.47;5034862;28;889;-60
2022/05/27 10:42:46;;;;;;;;;;;;;;;32.36;35.26;99926.19;5034815;28;1965;-59
2022/05/27 10:45:34;;;;;;;;;;;;;;;31.51;35.04;99930.66;5035288;28;802;-58
2022/05/27 10:48:19;;;;;;;;;;;;;;;31.77;34.71;99923.44;5034802;28;826;-58
2022/05/27 10:50:52;;;;;;;;;;;;;;;32.05;33.28;99925.00;5034778;28;857;-59
2022/05/27 10:53:22;;;;;;;;;;;;;;;32.25;31.66;99912.91;5034673;28;1015;-58
2022/05/27 10:55:56;;;;;;;;;;;;;;;32.01;31.63;99907.47;5034826;28;798;-59
2022/05/27 11:04:35;;;;;;;;;;;;;;;33.37;31.51;99888.72;5034526;28;644;-59
2022/05/27 11:07:24;;;;;;;;;;;;;;;33.44;31.86;99888.03;5034365;28;992;-60
2022/05/27 11:09:56;;;;;;;;;;;;;;;33.35;31.23;99888.50;5034259;28;838;-58
2022/05/27 11:12:23;;;;;;;;;;;;;;;32.93;31.95;99897.09;5034428;28;865;-58
2022/05/27 11:15:12;;;;;;;;;;;;;;;33.20;32.33;99882.66;5034197;28;945;-59
2022/05/27 11:17:57;;;;;;;;;;;;;;;33.75;31.22;99883.28;5034182;28;1188;-58
2022/05/27 11:20:39;;;;;;;;;;;;;;;34.17;30.29;99885.25;5034184;28;814;-58
2022/05/27 11:23:27;;;;;;;;;;;;;;;33.91;29.39;99878.41;5034048;28;1943;-58
2022/05/27 11:26:12;;;;;;;;;;;;;;;33.25;30.23;99888.25;5034216;28;854;-59
2022/05/27 11:28:42;;;;;;;;;;;;;;;33.46;30.89;99873.16;5034118;28;1452;-58
2022/05/27 11:31:25;;;;;;;;;;;;;;;32.37;32.93;99875.47;5033702;28;937;-59
2022/05/27 11:33:59;;;;;;;;;;;;;;;31.99;33.45;99865.13;5033624;28;857;-59
2022/05/27 11:36:41;;;;;;;;;;;;;;;33.08;31.39;99862.16;5034007;28;791;-59
2022/05/27 11:39:27;;;;;;;;;;;;;;;33.97;29.73;99852.47;5034145;28;1172;-59
2022/05/27 11:41:53;;;;;;;;;;;;;;;34.81;28.33;99862.69;5033672;28;1965;-58
2022/05/27 11:44:28;;;;;;;;;;;;;;;35.58;27.30;99852.72;5033833;28;846;-60
2022/05/27 11:47:03;;;;;;;;;;;;;;;35.55;25.60;99853.88;5033573;28;871;-59
2022/05/27 11:49:32;;;;;;;;;;;;;;;35.75;25.89;99860.75;5033718;28;842;-61
2022/05/27 11:52:08;;;;;;;;;;;;;;;34.09;27.15;99852.88;5033544;28;933;-59
2022/05/27 11:54:45;;;;;;;;;;;;;;;32.66;28.87;99850.66;5033751;28;856;-58
2022/05/27 11:57:33;;;;;;;;;;;;;;;33.29;28.38;99847.81;5033742;28;799;-59
2022/05/27 12:00:10;;;;;;;;;;;;;;;32.53;30.79;99852.25;5033002;28;2010;-59
2022/05/27 12:02:55;;;;;;;;;;;;;;;32.61;33.53;99851.56;5033246;28;1943;-58
2022/05/27 12:05:27;;;;;;;;;;;;;;;33.64;33.38;99839.84;5033410;28;862;-61
2022/05/27 12:08:07;;;;;;;;;;;;;;;34.32;32.95;99847.25;5033466;28;819;-61
2022/05/27 12:10:43;;;;;;;;;;;;;;;34.39;32.40;99837.13;5033286;28;823;-60
2022/05/27 12:13:13;;;;;;;;;;;;;;;32.54;33.92;99839.50;5015376;28;1363;-59
2022/05/27 12:15:46;;;;;;;;;;;;;;;30.78;37.18;99836.91;5033242;28;885;-60
2022/05/27 12:18:28;;;;;;;;;;;;;;;29.77;38.90;99839.09;5033115;28;814;-59
2022/05/27 12:20:55;;;;;;;;;;;;;;;29.62;40.23;99825.25;5033050;28;799;-59
2022/05/27 12:23:24;;;;;;;;;;;;;;;31.69;38.44;99829.06;5032966;28;1963;-58
2022/05/27 12:25:52;;;;;;;;;;;;;;;33.46;34.97;99830.19;5032820;28;910;-59
2022/05/27 12:28:28;;;;;;;;;;;;;;;34.36;33.32;99828.34;5032769;28;1263;-58
2022/05/27 12:30:56;;;;;;;;;;;;;;;35.48;32.36;99825.91;5033159;28;1315;-61
2022/05/27 12:33:24;;;;;;;;;;;;;;;36.05;31.46;99815.97;5033143;28;873;-58
2022/05/27 12:35:57;;;;;;;;;;;;;;;36.10;30.34;99823.63;5032865;28;889;-59
2022/05/27 12:38:25;;;;;;;;;;;;;;;36.30;30.28;99821.06;5032639;28;918;-59
2022/05/27 12:40:53;;;;;;;;;;;;;;;36.20;30.67;99817.28;5032585;28;882;-58
2022/05/27 12:43:21;;;;;;;;;;;;;;;36.57;29.65;99813.41;5032522;28;1906;-59
2022/05/27 12:45:53;;;;;;;;;;;;;;;36.39;29.67;99815.44;5032448;28;930;-61
2022/05/27 12:48:34;;;;;;;;;;;;;;;36.12;30.66;99809.41;5032884;28;794;-62
2022/05/27 12:51:04;;;;;;;;;;;;;;;35.47;30.56;99812.16;5014740;28;850;-60
2022/05/27 12:53:57;;;;;;;;;;;;;;;35.11;31.30;99802.41;5032559;28;802;-59
2022/05/27 13:02:16;;;;;;;;;;;;;;;35.41;31.80;99812.34;5032217;28;1894;-58
2022/05/27 13:04:45;;;;;;;;;;;;;;;35.32;31.62;99805.06;5032163;28;866;-61
2022/05/27 13:07:11;;;;;;;;;;;;;;;34.83;31.99;99799.75;5032228;28;802;-59
2022/05/27 13:09:47;;;;;;;;;;;;;;;34.99;32.38;99789.75;5032137;28;957;-61
2022/05/27 13:12:32;;;;;;;;;;;;;;;34.45;32.53;99792.59;5032595;28;869;-59
2022/05/27 13:15:06;;;;;;;;;;;;;;;33.64;33.99;99785.41;5032070;28;918;-58
2022/05/27 13:17:37;;;;;;;;;;;;;;;34.10;33.58;99777.00;5031929;28;939;-61
2022/05/27 13:20:07;;;;;;;;;;;;;;;33.73;34.06;99782.75;5031935;28;946;-59
2022/05/27 13:22:49;;;;;;;;;;;;;;;34.09;33.78;99778.31;5031854;28;1886;-59
2022/05/27 13:25:24;;;;;;;;;;;;;;;33.43;34.65;99777.63;5031880;28;830;-58
2022/05/27 13:27:55;;;;;;;;;;;;;;;34.04;34.42;99776.41;5031521;28;1395;-58
2022/05/27 13:30:23;;;;;;;;;;;;;;;34.66;33.39;99769.50;5031844;28;869;-58
2022/05/27 13:33:16;;;;;;;;;;;;;;;34.71;33.16;99765.66;5031824;28;818;-60
2022/05/27 13:35:44;;;;;;;;;;;;;;;33.82;34.17;99767.16;5027722;28;1428;-59
2022/05/27 13:38:12;;;;;;;;;;;;;;;33.03;34.89;99760.75;5031898;28;815;-61
2022/05/27 13:40:39;;;;;;;;;;;;;;;33.50;35.18;99767.53;5031648;28;874;-60
2022/05/27 13:43:08;;;;;;;;;;;;;;;34.10;34.23;99768.41;5031562;28;1968;-59
2022/05/27 13:45:45;;;;;;;;;;;;;;;33.55;35.65;99767.38;5031676;28;882;-59
2022/05/27 13:48:13;;;;;;;;;;;;;;;31.94;36.90;99769.59;5031852;28;862;-58
2022/05/27 13:50:41;;;;;;;;;;;;;;;32.11;37.75;99752.09;5031780;28;929;-58
2022/05/27 13:53:35;;;;;;;;;;;;;;;32.38;37.18;99768.38;5031460;28;919;-58
2022/05/27 13:56:09;;;;;;;;;;;;;;;32.34;37.30;99752.31;5028213;28;1230;-60
2022/05/27 13:58:37;;;;;;;;;;;;;;;32.07;36.84;99754.53;5031454;28;823;-59
2022/05/27 14:01:05;;;;;;;;;;;;;;;31.67;37.37;99748.88;5031379;28;854;-58
2022/05/27 14:03:45;;;;;;;;;;;;;;;31.56;38.04;99743.41;5013753;28;1941;-57
2022/05/27 14:06:21;;;;;;;;;;;;;;;31.31;38.06;99740.75;5031361;28;930;-58
2022/05/27 14:08:48;;;;;;;;;;;;;;;31.25;38.34;99730.75;5031376;28;981;-58
2022/05/27 14:11:29;;;;;;;;;;;;;;;30.92;39.13;99732.94;5031339;28;972;-58
2022/05/27 14:14:00;;;;;;;;;;;;;;;30.43;39.72;99733.25;5031326;28;838;-58
2022/05/27 14:16:34;;;;;;;;;;;;;;;30.27;40.26;99732.19;5031375;28;826;-59
2022/05/27 14:19:08;;;;;;;;;;;;;;;30.16;40.95;99729.50;5031565;28;841;-58
2022/05/27 14:24:26;;;;;;;;;;;;;;;29.67;41.44;99719.78;5031799;28;687;-58